createdAt,value
2019-01-15T00:02:38.648Z,2.67
2019-01-15T00:05:07.874Z,2.60
2019-01-15T00:07:40.061Z,2.33
2019-01-15T00:10:47.733Z,2.27
2019-01-15T00:13:33.500Z,2.00
2019-01-15T00:19:18.922Z,2.43
2019-01-15T00:21:48.253Z,1.97
2019-01-15T00:27:48.248Z,2.37
2019-01-15T00:30:20.563Z,2.50
2019-01-15T00:35:30.155Z,2.40
2019-01-15T00:44:24.421Z,2.07
2019-01-15T00:49:48.547Z,1.90
2019-01-15T00:52:20.722Z,2.67
2019-01-15T00:55:31.506Z,2.27
2019-01-15T00:58:03.624Z,2.13
2019-01-15T01:04:00.547Z,2.37
2019-01-15T01:06:45.412Z,2.07
2019-01-15T01:09:53.814Z,1.93
2019-01-15T01:12:25.221Z,2.20
2019-01-15T01:15:20.664Z,2.10
2019-01-15T01:18:30.823Z,2.20
2019-01-15T01:21:00.028Z,2.70
2019-01-15T01:23:29.356Z,2.10
2019-01-15T01:25:58.615Z,2.27
2019-01-15T01:31:29.870Z,2.37
2019-01-15T01:33:59.082Z,2.37
2019-01-15T01:36:28.930Z,2.57
2019-01-15T01:42:05.905Z,2.47
2019-01-15T01:44:35.213Z,2.37
2019-01-15T01:47:42.321Z,2.23
2019-01-15T01:50:30.616Z,2.40
2019-01-15T01:52:59.827Z,2.33
2019-01-15T01:55:48.901Z,2.60
2019-01-15T01:58:18.112Z,2.57
2019-01-15T02:03:41.804Z,2.77
2019-01-15T02:06:32.534Z,2.50
2019-01-15T02:24:15.561Z,2.00
2019-01-15T02:27:24.352Z,3.00
2019-01-15T02:30:14.420Z,2.53
2019-01-15T02:33:39.392Z,2.50
2019-01-15T02:39:14.968Z,2.70
2019-01-15T02:41:25.855Z,2.83
2019-01-15T02:43:55.124Z,2.93
2019-01-15T02:46:41.000Z,2.83
2019-01-15T02:55:34.059Z,3.00
2019-01-15T02:58:03.338Z,2.77
2019-01-15T03:01:28.810Z,2.80
2019-01-15T03:04:47.635Z,2.43
2019-01-15T03:07:40.287Z,3.23
2019-01-15T03:10:34.103Z,2.80
2019-01-15T03:13:50.275Z,3.33
2019-01-15T03:16:20.587Z,2.97
2019-01-15T03:19:31.902Z,3.20
2019-01-15T03:22:21.241Z,3.57
2019-01-15T03:25:13.477Z,3.10
2019-01-15T03:28:24.055Z,3.73
2019-01-15T03:30:53.273Z,3.27
2019-01-15T03:34:01.914Z,3.23
2019-01-15T03:36:54.012Z,3.40
2019-01-15T03:43:10.652Z,2.80
2019-01-15T03:46:08.621Z,2.47
2019-01-15T03:49:34.262Z,2.87
2019-01-15T03:52:10.540Z,2.87
2019-01-15T03:54:58.854Z,3.07
2019-01-15T03:57:30.606Z,2.70
2019-01-15T04:03:04.810Z,2.67
2019-01-15T04:06:16.075Z,2.43
2019-01-15T04:08:45.350Z,1.83
2019-01-15T04:11:54.117Z,2.33
2019-01-15T04:15:19.494Z,1.70
2019-01-15T04:17:53.462Z,1.53
2019-01-15T04:24:20.710Z,0.83
2019-01-15T04:33:12.260Z,1.27
2019-01-15T04:39:25.347Z,1.10
2019-01-15T04:47:39.584Z,1.17
2019-01-15T04:50:47.452Z,1.03
2019-01-15T04:53:16.646Z,1.10
2019-01-15T04:55:45.867Z,0.90
2019-01-15T04:58:15.071Z,1.60
2019-01-15T05:00:44.305Z,1.37
2019-01-15T05:03:13.602Z,1.90
2019-01-15T05:05:42.802Z,1.67
2019-01-15T05:08:12.001Z,1.67
2019-01-15T05:10:41.322Z,1.50
2019-01-15T05:13:10.525Z,2.10
2019-01-15T05:15:39.718Z,1.73
2019-01-15T05:18:09.418Z,1.80
2019-01-15T05:20:38.603Z,2.10
2019-01-15T05:23:08.118Z,1.83
2019-01-15T05:25:37.313Z,2.47
2019-01-15T05:28:06.526Z,2.43
2019-01-15T05:30:35.715Z,2.50
2019-01-15T05:33:04.934Z,2.07
2019-01-15T05:35:34.126Z,1.83
2019-01-15T05:38:03.318Z,2.77
2019-01-15T05:40:32.549Z,1.60
2019-01-15T05:43:01.737Z,1.90
2019-01-15T05:45:49.874Z,1.60
2019-01-15T05:48:38.276Z,1.80
2019-01-15T05:51:26.437Z,1.60
2019-01-15T05:53:55.635Z,2.10
2019-01-15T05:56:24.832Z,1.73
2019-01-15T05:58:54.535Z,1.97
2019-01-15T06:01:23.732Z,1.60
2019-01-15T06:04:32.908Z,2.20
2019-01-15T06:07:02.160Z,1.87
2019-01-15T06:09:31.676Z,2.00
2019-01-15T06:12:00.994Z,2.33
2019-01-15T06:14:30.234Z,2.00
2019-01-15T06:16:59.470Z,1.93
2019-01-15T06:19:28.817Z,2.60
2019-01-15T06:21:58.065Z,2.10
2019-01-15T06:24:46.274Z,2.30
2019-01-15T06:27:15.484Z,2.10
2019-01-15T06:32:34.612Z,1.97
2019-01-15T06:38:12.643Z,2.37
2019-01-15T06:40:41.852Z,2.70
2019-01-15T06:43:11.418Z,2.30
2019-01-15T06:45:41.030Z,2.10
2019-01-15T06:48:10.236Z,2.50
2019-01-15T06:50:39.790Z,2.50
2019-01-15T06:55:46.256Z,2.30
2019-01-15T06:58:15.525Z,2.37
2019-01-15T07:00:44.722Z,2.50
2019-01-15T07:03:13.929Z,2.70
2019-01-15T07:05:43.172Z,2.90
2019-01-15T07:08:33.517Z,2.80
2019-01-15T07:14:17.368Z,3.03
2019-01-15T07:17:07.322Z,3.43
2019-01-15T07:19:36.545Z,2.70
2019-01-15T07:28:16.196Z,3.00
2019-01-15T07:33:57.450Z,2.40
2019-01-15T07:36:26.650Z,3.00
2019-01-15T07:39:07.776Z,3.10
2019-01-15T07:41:28.476Z,2.80
2019-01-15T07:44:04.149Z,3.40
2019-01-15T07:46:28.943Z,2.80
2019-01-15T07:49:38.418Z,2.33
2019-01-15T07:52:07.629Z,2.60
2019-01-15T07:54:36.825Z,2.60
2019-01-15T07:57:25.260Z,2.90
2019-01-15T08:00:34.177Z,2.40
2019-01-15T08:03:03.512Z,2.83
2019-01-15T08:05:35.309Z,2.93
2019-01-15T08:08:25.045Z,2.70
2019-01-15T08:10:57.117Z,2.53
2019-01-15T08:16:02.070Z,1.97
2019-01-15T08:18:50.890Z,2.50
2019-01-15T08:21:20.112Z,2.00
2019-01-15T08:23:49.433Z,2.33
2019-01-15T08:26:38.354Z,1.80
2019-01-15T08:29:13.891Z,2.13
2019-01-15T08:32:02.070Z,1.60
2019-01-15T08:34:31.317Z,1.30
2019-01-15T08:37:03.123Z,1.40
2019-01-15T08:39:32.734Z,2.20
2019-01-15T08:42:03.810Z,2.43
2019-01-15T08:48:08.578Z,1.30
2019-01-15T08:50:51.660Z,2.03
2019-01-15T08:53:09.069Z,1.43
2019-01-15T08:55:58.722Z,1.60
2019-01-15T08:58:28.399Z,1.80
2019-01-15T09:00:59.756Z,1.47
2019-01-15T09:03:28.976Z,1.27
2019-01-15T09:05:58.707Z,1.50
2019-01-15T09:08:27.984Z,2.70
2019-01-15T09:10:59.548Z,1.90
2019-01-15T09:13:28.768Z,1.47
2019-01-15T09:15:58.186Z,1.47
2019-01-15T09:18:28.826Z,1.60
2019-01-15T09:20:58.573Z,1.63
2019-01-15T09:23:27.850Z,2.20
2019-01-15T09:25:57.576Z,1.73
2019-01-15T09:28:29.195Z,1.80
2019-01-15T09:30:58.582Z,2.30
2019-01-15T09:33:27.789Z,2.10
2019-01-15T09:35:57.041Z,1.87
2019-01-15T09:38:26.255Z,1.60
2019-01-15T09:40:55.484Z,1.60
2019-01-15T09:43:24.694Z,1.90
2019-01-15T09:45:54.217Z,1.73
2019-01-15T09:51:02.578Z,1.60
2019-01-15T09:53:31.798Z,2.00
2019-01-15T09:56:01.352Z,1.40
2019-01-15T09:58:30.673Z,1.33
2019-01-15T10:00:59.878Z,1.30
2019-01-15T10:03:29.102Z,1.33
2019-01-15T10:06:17.306Z,1.60
2019-01-15T10:08:46.522Z,1.30
2019-01-15T10:11:15.731Z,1.70
2019-01-15T10:13:45.003Z,1.23
2019-01-15T10:16:54.073Z,1.40
2019-01-15T10:19:24.247Z,1.53
2019-01-15T10:21:53.642Z,1.53
2019-01-15T10:25:02.780Z,1.17
2019-01-15T10:27:37.292Z,1.20
2019-01-15T10:33:19.971Z,1.23
2019-01-15T10:35:58.252Z,1.93
2019-01-15T10:39:07.514Z,1.30
2019-01-15T10:41:36.749Z,1.00
2019-01-15T10:44:05.984Z,1.27
2019-01-15T10:46:54.221Z,3.50
2019-01-15T10:49:23.433Z,1.63
2019-01-15T10:51:52.957Z,1.27
2019-01-15T10:54:22.185Z,1.53
2019-01-15T10:56:51.397Z,1.00
2019-01-15T10:59:20.616Z,1.10
2019-01-15T11:01:50.117Z,1.30
2019-01-15T11:04:19.482Z,1.10
2019-01-15T11:07:07.762Z,0.83
2019-01-15T11:09:36.993Z,0.80
2019-01-15T11:12:06.202Z,1.50
2019-01-15T11:17:15.412Z,1.17
2019-01-15T11:19:45.014Z,1.27
2019-01-15T11:22:14.210Z,0.87
2019-01-15T11:24:54.679Z,0.90
2019-01-15T11:33:32.654Z,1.47
2019-01-15T11:36:01.879Z,1.20
2019-01-15T11:38:37.158Z,1.20
2019-01-15T11:41:06.373Z,1.00
2019-01-15T11:43:35.585Z,1.00
2019-01-15T11:46:05.209Z,1.07
2019-01-15T11:48:51.025Z,1.23
2019-01-15T11:51:08.272Z,0.90
2019-01-15T11:53:37.472Z,1.00
2019-01-15T11:56:07.231Z,1.10
2019-01-15T11:58:36.635Z,2.93
2019-01-15T12:01:24.870Z,1.37
2019-01-15T12:04:13.015Z,1.03
2019-01-15T12:07:13.958Z,1.23
2019-01-15T12:09:51.060Z,0.90
2019-01-15T12:12:39.177Z,1.03
2019-01-15T12:15:27.448Z,1.37
2019-01-15T12:18:15.644Z,0.70
2019-01-15T12:21:24.257Z,1.10
2019-01-15T12:24:12.501Z,1.00
2019-01-15T12:27:19.721Z,1.00
2019-01-15T12:30:07.870Z,0.93
2019-01-15T12:32:55.987Z,0.90
2019-01-15T12:35:44.398Z,0.80
2019-01-15T12:38:29.307Z,0.80
2019-01-15T12:41:17.459Z,0.80
2019-01-15T12:44:05.955Z,1.60
2019-01-15T12:46:54.126Z,1.10
2019-01-15T12:49:42.246Z,1.10
2019-01-15T12:52:30.518Z,0.90
2019-01-15T12:55:18.664Z,1.50
2019-01-15T12:58:02.389Z,1.03
2019-01-15T13:00:50.536Z,1.00
2019-01-15T13:03:38.672Z,1.37
2019-01-15T13:06:26.823Z,1.20
2019-01-15T13:09:14.940Z,1.27
2019-01-15T13:12:03.157Z,1.23
2019-01-15T13:14:51.290Z,1.23
2019-01-15T13:17:39.433Z,1.60
2019-01-15T13:20:29.967Z,1.00
2019-01-15T13:23:18.139Z,1.20
2019-01-15T13:26:06.453Z,1.30
2019-01-15T13:28:54.627Z,1.70
2019-01-15T13:31:43.056Z,1.80
2019-01-15T13:34:31.172Z,1.47
2019-01-15T13:37:19.344Z,1.40
2019-01-15T13:40:07.474Z,1.70
2019-01-15T13:42:55.609Z,1.87
2019-01-15T13:45:43.724Z,1.60
2019-01-15T13:48:31.859Z,1.80
2019-01-15T13:51:20.472Z,1.87
2019-01-15T13:54:09.269Z,1.63
2019-01-15T13:56:58.963Z,1.97
2019-01-15T13:59:47.143Z,2.03
2019-01-15T14:02:35.280Z,2.40
2019-01-15T14:08:32.268Z,1.97
2019-01-15T14:11:20.695Z,1.87
2019-01-15T14:14:09.158Z,2.40
2019-01-15T14:16:57.272Z,2.57
2019-01-15T14:19:45.408Z,2.60
2019-01-15T14:22:28.229Z,2.10
2019-01-15T14:25:16.392Z,2.77
2019-01-15T14:28:04.512Z,2.40
2019-01-15T14:30:53.050Z,2.30
2019-01-15T14:33:41.438Z,2.27
2019-01-15T14:36:29.572Z,2.23
2019-01-15T14:39:17.956Z,2.43
2019-01-15T14:42:06.089Z,2.43
2019-01-15T14:44:54.220Z,2.30
2019-01-15T14:47:42.617Z,2.53
2019-01-15T14:50:31.338Z,2.50
2019-01-15T14:53:19.471Z,2.77
2019-01-15T14:56:08.034Z,3.17
2019-01-15T14:58:56.153Z,3.10
2019-01-15T15:01:44.322Z,3.17
2019-01-15T15:04:32.409Z,3.17
2019-01-15T15:07:20.543Z,3.07
2019-01-15T15:10:08.716Z,3.30
2019-01-15T15:12:56.843Z,2.80
2019-01-15T15:15:44.962Z,3.13
2019-01-15T15:18:33.105Z,2.93
2019-01-15T15:21:21.254Z,2.70
2019-01-15T15:24:09.444Z,3.37
2019-01-15T15:26:57.637Z,3.13
2019-01-15T15:29:45.758Z,2.83
2019-01-15T15:32:24.636Z,2.80
2019-01-15T15:35:12.750Z,3.00
2019-01-15T15:38:00.884Z,2.90
2019-01-15T15:40:49.112Z,3.10
2019-01-15T15:43:37.247Z,3.20
2019-01-15T15:46:25.648Z,3.07
2019-01-15T15:49:13.782Z,2.93
2019-01-15T15:52:01.929Z,3.13
2019-01-15T15:54:50.069Z,3.13
2019-01-15T15:57:38.488Z,2.57
2019-01-15T16:00:31.425Z,3.13
2019-01-15T16:03:19.557Z,3.40
2019-01-15T16:06:07.670Z,3.07
2019-01-15T16:08:56.638Z,3.30
2019-01-15T16:11:44.762Z,3.20
2019-01-15T16:14:32.896Z,3.43
2019-01-15T16:17:21.016Z,3.80
2019-01-15T16:20:09.445Z,3.50
2019-01-15T16:22:57.613Z,3.50
2019-01-15T16:25:33.455Z,3.57
2019-01-15T16:28:21.628Z,3.50
2019-01-15T16:31:09.764Z,3.67
2019-01-15T16:33:57.895Z,3.80
2019-01-15T16:36:46.008Z,3.17
2019-01-15T16:39:34.142Z,3.40
2019-01-15T16:42:22.250Z,3.17
2019-01-15T16:45:10.590Z,3.30
2019-01-15T16:47:58.700Z,3.57
2019-01-15T16:50:47.144Z,3.57
2019-01-15T16:53:35.252Z,3.80
2019-01-15T16:59:18.289Z,3.20
2019-01-15T17:02:06.415Z,3.30
2019-01-15T17:04:45.800Z,3.20
2019-01-15T17:07:25.060Z,3.80
2019-01-15T17:10:13.174Z,3.50
2019-01-15T17:13:01.430Z,3.70
2019-01-15T17:15:49.541Z,4.20
2019-01-15T17:18:25.048Z,3.90
2019-01-15T17:21:13.173Z,3.77
2019-01-15T17:24:01.337Z,3.77
2019-01-15T17:26:49.448Z,3.47
2019-01-15T17:29:26.962Z,3.60
2019-01-15T17:32:15.085Z,3.97
2019-01-15T17:35:03.243Z,3.70
2019-01-15T17:37:51.399Z,3.40
2019-01-15T17:40:39.844Z,3.50
2019-01-15T17:43:28.066Z,3.83
2019-01-15T17:46:16.490Z,3.77
2019-01-15T17:49:04.601Z,3.20
2019-01-15T17:51:52.740Z,4.03
2019-01-15T17:54:40.847Z,3.43
2019-01-15T17:57:29.276Z,3.30
2019-01-15T18:00:17.403Z,3.23
2019-01-15T18:03:01.095Z,3.30
2019-01-15T18:05:49.210Z,3.23
2019-01-15T18:08:37.621Z,3.73
2019-01-15T18:11:25.800Z,3.23
2019-01-15T18:14:13.941Z,3.47
2019-01-15T18:17:02.465Z,3.33
2019-01-15T18:19:50.582Z,3.60
2019-01-15T18:22:38.740Z,3.93
2019-01-15T18:25:27.189Z,3.43
2019-01-15T18:28:15.453Z,3.57
2019-01-15T18:31:03.560Z,4.40
2019-01-15T18:33:51.699Z,3.43
2019-01-15T18:36:39.808Z,3.67
2019-01-15T18:39:28.232Z,3.83
2019-01-15T18:42:16.371Z,3.63
2019-01-15T18:45:00.810Z,3.50
2019-01-15T18:47:48.942Z,3.87
2019-01-15T18:50:37.060Z,3.70
2019-01-15T18:53:25.204Z,3.90
2019-01-15T18:56:01.901Z,3.23
2019-01-15T18:58:50.335Z,3.57
2019-01-15T19:01:38.453Z,4.17
2019-01-15T19:04:26.929Z,4.40
2019-01-15T19:07:15.044Z,3.90
2019-01-15T19:10:03.219Z,4.17
2019-01-15T19:12:51.653Z,4.17
2019-01-15T19:15:58.788Z,3.73
2019-01-15T19:18:46.895Z,4.00
2019-01-15T19:21:35.159Z,4.37
2019-01-15T19:24:23.921Z,4.53
2019-01-15T19:27:12.059Z,4.20
2019-01-15T19:30:00.323Z,4.23
2019-01-15T19:32:48.506Z,4.17
2019-01-15T19:35:36.940Z,4.03
2019-01-15T19:38:25.347Z,3.57
2019-01-15T19:41:13.526Z,3.63
2019-01-15T19:44:01.706Z,4.00
2019-01-15T19:46:49.846Z,3.67
2019-01-15T19:49:29.642Z,3.87
2019-01-15T19:52:17.770Z,4.57
2019-01-15T19:55:05.923Z,3.80
2019-01-15T19:57:54.033Z,4.00
2019-01-15T20:00:40.774Z,3.90
2019-01-15T20:03:29.820Z,3.80
2019-01-15T20:06:18.785Z,3.90
2019-01-15T20:09:07.174Z,4.03
2019-01-15T20:11:55.319Z,4.00
2019-01-15T20:14:43.500Z,3.97
2019-01-15T20:17:24.474Z,4.40
2019-01-15T20:20:12.648Z,4.13
2019-01-15T20:23:01.084Z,3.90
2019-01-15T20:25:49.252Z,4.23
2019-01-15T20:28:37.789Z,4.07
2019-01-15T20:31:25.984Z,4.30
2019-01-15T20:34:14.410Z,4.57
2019-01-15T20:37:02.560Z,3.90
2019-01-15T20:39:51.868Z,4.10
2019-01-15T20:43:00.544Z,3.97
2019-01-15T20:45:48.730Z,4.37
2019-01-15T20:48:36.849Z,4.57
2019-01-15T20:51:25.190Z,4.37
2019-01-15T20:54:21.943Z,4.30
2019-01-15T20:57:32.446Z,4.17
2019-01-15T21:00:20.875Z,4.43
2019-01-15T21:03:22.986Z,4.20
2019-01-15T21:06:34.442Z,3.97
2019-01-15T21:15:27.202Z,4.93
2019-01-15T21:18:15.433Z,5.00
2019-01-15T21:21:03.985Z,5.17
2019-01-15T21:23:52.123Z,4.83
2019-01-15T21:26:40.294Z,5.00
2019-01-15T21:29:28.465Z,5.27
2019-01-15T21:32:16.618Z,5.23
2019-01-15T21:35:04.956Z,4.67
2019-01-15T21:37:56.133Z,5.07
2019-01-15T21:40:44.730Z,5.47
2019-01-15T21:43:32.875Z,4.87
2019-01-15T21:46:21.307Z,4.87
2019-01-15T21:49:09.425Z,5.77
2019-01-15T21:51:57.559Z,5.40
2019-01-15T21:54:45.676Z,4.80
2019-01-15T21:57:34.010Z,5.97
2019-01-15T22:00:22.254Z,5.57
2019-01-15T22:03:10.807Z,5.33
2019-01-15T22:05:58.913Z,5.20
2019-01-15T22:08:47.336Z,6.07
2019-01-15T22:11:26.693Z,5.50
2019-01-15T22:14:14.904Z,5.10
2019-01-15T22:17:03.321Z,5.73
2019-01-15T22:19:51.423Z,5.37
2019-01-15T22:22:39.558Z,5.90
2019-01-15T22:25:28.303Z,6.17
2019-01-15T22:28:16.480Z,5.83
2019-01-15T22:30:56.161Z,6.33
2019-01-15T22:33:44.306Z,5.93
2019-01-15T22:36:32.421Z,5.80
2019-01-15T22:39:20.567Z,5.73
2019-01-15T22:42:08.721Z,5.27
2019-01-15T22:44:56.969Z,6.40
2019-01-15T22:47:45.487Z,5.43
2019-01-15T22:50:33.676Z,5.77
2019-01-15T22:53:16.021Z,6.30
2019-01-15T22:56:04.447Z,6.10
2019-01-15T22:58:52.584Z,5.60
2019-01-15T23:02:03.634Z,6.33
2019-01-15T23:04:51.765Z,5.67
2019-01-15T23:07:39.898Z,5.30
2019-01-15T23:10:20.202Z,5.83
2019-01-15T23:13:08.347Z,6.43
2019-01-15T23:15:56.493Z,6.17
2019-01-15T23:18:44.639Z,5.53
2019-01-15T23:21:33.042Z,6.10
2019-01-15T23:24:21.190Z,5.80
2019-01-15T23:27:09.307Z,6.60
2019-01-15T23:29:57.475Z,5.90
2019-01-15T23:32:45.916Z,6.17
2019-01-15T23:35:34.129Z,6.10
2019-01-15T23:38:22.545Z,5.83
2019-01-15T23:41:10.757Z,6.57
2019-01-15T23:43:59.273Z,6.27
2019-01-15T23:46:47.384Z,5.70
2019-01-15T23:49:35.520Z,6.23
2019-01-15T23:55:32.540Z,6.13
2019-01-15T23:58:20.965Z,6.70
